Wednesday, October 18, 2017, 3:38 AM EDT
Back to Local

KZZV, Zanesville Municipal Airport

Location: Zanesville, OH, United States Lat: 39.95
Local Time: 3:38 AM EDT ( 7:38 GMT) Lon: -81.9
Time Zone: US/Eastern Elev: 898 ft

Show me the last for .
Show Decoded

2017-10-18 02:53 METAR KZZV 180653Z AUTO 00000KT 10SM CLR 05/03 A3030 RMK AO2 SLP263 T00500033 =
2017-10-18 01:53 METAR KZZV 180553Z AUTO 00000KT 10SM CLR 06/03 A3030 RMK AO2 SLP262 T00560033
                 10133 20056 51004 =
2017-10-18 00:53 METAR KZZV 180453Z AUTO 00000KT 10SM CLR 07/04 A3030 RMK AO2 SLP261 T00720044
                 401830017 =
2017-10-17 23:53 METAR KZZV 180353Z AUTO 00000KT 10SM CLR 07/05 A3030 RMK AO2 SLP261 T00720050 =
2017-10-17 22:53 METAR KZZV 180253Z AUTO 00000KT 10SM CLR 08/05 A3029 RMK AO2 SLP259 T00830050
                 53007 =
2017-10-17 21:53 METAR KZZV 180153Z AUTO 19003KT 10SM CLR 09/05 A3028 RMK AO2 SLP256 T00940050 =
2017-10-17 20:53 METAR KZZV 180053Z AUTO 20004KT 10SM CLR 12/04 A3027 RMK AO2 SLP253 T01220044 =
2017-10-17 19:53 METAR KZZV 172353Z AUTO 20004KT 10SM CLR 13/04 A3027 RMK AO2 SLP254 T01280039
                 10183 20128 53002 =
2017-10-17 18:53 METAR KZZV 172253Z AUTO 21004KT 10SM CLR 15/04 A3026 RMK AO2 SLP248 T01500039 =
2017-10-17 17:53 METAR KZZV 172153Z AUTO 22006KT 10SM CLR 17/03 A3026 RMK AO2 SLP248 T01720033 =
2017-10-17 16:53 METAR KZZV 172053Z AUTO VRB05KT 10SM CLR 18/03 A3026 RMK AO2 SLP249 T01780033
                 56015 =
2017-10-17 15:53 METAR KZZV 171953Z AUTO VRB06KT 10SM CLR 18/04 A3028 RMK AO2 SLP253 T01830039 =
2017-10-17 14:53 METAR KZZV 171853Z AUTO 22007G14KT 10SM CLR 18/03 A3029 RMK AO2 SLP258 T01780033
                 =
2017-10-17 13:53 METAR KZZV 171753Z AUTO 27005KT 10SM CLR 17/03 A3031 RMK AO2 SLP265 T01720033
                 10172 20017 58020 =
2017-10-17 12:53 METAR KZZV 171653Z AUTO 22006KT 10SM CLR 17/05 A3034 RMK AO2 SLP275 T01670050 =
2017-10-17 11:53 METAR KZZV 171553Z AUTO 27007KT 10SM CLR 15/04 A3036 RMK AO2 SLP281 T01500044 =
2017-10-17 10:53 METAR KZZV 171453Z AUTO 19005KT 10SM CLR 11/06 A3037 RMK AO2 SLP287 T01110061
                 50003 =
2017-10-17 09:53 METAR KZZV 171353Z AUTO 20004KT 10SM CLR 08/04 A3037 RMK AO2 SLP290 T00780044 =
2017-10-17 08:53 METAR KZZV 171253Z AUTO 00000KT 10SM CLR 03/02 A3037 RMK AO2 SLP289 T00330022 =
2017-10-17 07:53 METAR KZZV 171153Z AUTO 00000KT 10SM CLR 02/01 A3036 RMK AO2 SLP286 T00170006
                 10039 20017 51011 =
2017-10-17 06:53 METAR KZZV 171053Z AUTO 00000KT 10SM CLR 02/01 A3035 RMK AO2 SLP282 T00220006 =
2017-10-17 05:53 METAR KZZV 170953Z AUTO 00000KT 10SM CLR 02/01 A3034 RMK AO2 SLP277 T00220011 =
2017-10-17 04:53 METAR KZZV 170853Z AUTO 00000KT 10SM CLR 03/01 A3033 RMK AO2 SLP273 T00280011
                 53007 =
2017-10-17 03:53 METAR KZZV 170753Z AUTO 00000KT 10SM CLR 03/02 A3032 RMK AO2 SLP270 T00330017 =

Support USWX by starting your Amazon purchase here.